West New York, NJ (07093)

1:54 AM EDT en Octubre 23, 2014 (GMT -0400)
WCBS TELEVISION | Change Station
CLOSE
Current Station
Estación meteorológica personal
Location: New York, NY
Altura: 13 ft
Estaciones meteorológicas cercanas

Alt 13 ft 40.77 °N, 73.99 °W | Updated 20 seconds ago

Overcast
Nublado
52.6 ° F
Sensación térmica 52.6 ° F
N
10.5
Viento Variable Viento desde NNE
Gusts 16.0 mph

Hoy
Alta -- | Baja -- ° F
--% Posibilidad de precipitaciones
Ayer
Alta -- | Baja -- ° F
Precip. -- pul
7:16 AM 6:03 PM
Creciente menguante, 0% visible
Presión 29.73 pul
Visibilidad 10.0 Millas
Nubes Muy nublado 1800 ft
Muy nublado 2400 ft
Nublado 3200 ft
Punto de rocío 48 ° F
Humedad 85%
Precipitaciones 0.00 pul
Espesor de la nieve No disponible.
UV 0 de una escala de 12
Polen .30 de una escala de 12
PM2.5 Buena
Flu Activity Sporadic
METAR KNYC 230451Z AUTO 04010G22KT 360V070 10SM BKN018 BKN024 OVC032 11/08 A2975 RMK AO2 SLP067 T01060083 401440100 $

More Conditions Fewer Conditions

Presión 29.73 pul
Visibilidad 10.0 Millas
Nubes Muy nublado 1800 ft
Muy nublado 2400 ft
Nublado 3200 ft
Punto de rocío 48 ° F
Humedad 85%
Precipitaciones 0.00 pul
Espesor de la nieve No disponible.
UV 0 de una escala de 12
Polen .30 de una escala de 12
PM2.5 Buena
Flu Activity Sporadic
METAR KNYC 230451Z AUTO 04010G22KT 360V070 10SM BKN018 BKN024 OVC032 11/08 A2975 RMK AO2 SLP067 T01060083 401440100 $

More Conditions Fewer Conditions

10-Day Weather Forecast

Almanac

Astronomía

Oct. 23, 2014 Salida Puesta
Hora real 7:16 AM EDT 6:03 PM EDT
Crepúsculo civil 6:48 AM EDT 6:31 PM EDT
Crepúsculo náutico 6:16 AM EDT 7:03 PM EDT
Crepúsculo astronómico 5:44 AM EDT 7:35 PM EDT
Luna 6:53 AM EDT 6:04 PM EDT
Horas de luz 11h 43m
Horas de luz
10h 47m
Tomorrow will be 2m 32s shorter.
Creciente menguante, 0% of the Moon is Illuminated
Hoy
Creciente menguante
Oct 23
Nueva
Oct 30
Cuarto creciente
Nov 6
Luna llena
Nov 14
Cuarto menguante

Extremos de hoy

Máximos del estado Bajos del estado

Community

WunderPhotos

Upload Photos

1,764,188 ¡fotos cargadas!

Nearby

Calidad del aire

  Calidad del aire Índice AQ Contaminante
Ayer Buena
OZONE
Ayer Buena
PM2.5
Real Buena
PM2.5
Jueves Buena
OZONE

Grosos de nieve

Estación Profundido Altura
No tenemos constancia de nieve nueva.

Actividad de terremotos

Ciudad Distance Mag. Tiempo y dato
No hay informes recientes de la actividad sísmica.
Magnitud mínima muestra es 2,5.

Temperaturas de aguas costeras

Lugar Temperatura
Sandy Hook, NJ 60.1 ° F
The Battery, NY 62.1 ° F
Bergen Point West Reach, NJ 62.1 ° F

Estaciones meteorológicas cercanas